createdAt,value
2019-03-03T00:00:52.283Z,37.13
2019-03-03T00:03:18.714Z,32.28
2019-03-03T00:05:44.851Z,34.00
2019-03-03T00:08:11.101Z,29.25
2019-03-03T00:10:37.230Z,31.87
2019-03-03T00:13:03.621Z,33.95
2019-03-03T00:15:29.775Z,34.58
2019-03-03T00:17:58.433Z,30.92
2019-03-03T00:20:26.449Z,27.42
2019-03-03T00:22:52.917Z,26.23
2019-03-03T00:25:20.247Z,30.60
2019-03-03T00:27:47.438Z,29.25
2019-03-03T00:30:16.204Z,30.27
2019-03-03T00:32:42.764Z,26.75
2019-03-03T00:35:09.850Z,29.48
2019-03-03T00:37:47.791Z,27.17
2019-03-03T00:40:21.867Z,30.17
2019-03-03T00:42:49.893Z,27.00
2019-03-03T00:45:18.561Z,25.88
2019-03-03T00:48:03.907Z,23.45
2019-03-03T00:50:32.038Z,23.25
2019-03-03T00:53:10.454Z,24.35
2019-03-03T00:55:41.696Z,22.70
2019-03-03T00:58:09.769Z,21.42
2019-03-03T01:00:41.117Z,22.30
2019-03-03T01:03:09.188Z,23.85
2019-03-03T01:05:37.217Z,22.75
2019-03-03T01:08:11.248Z,20.45
2019-03-03T01:10:39.225Z,20.85
2019-03-03T01:13:23.981Z,17.37
2019-03-03T01:15:52.619Z,17.57
2019-03-03T01:18:26.929Z,17.42
2019-03-03T01:20:56.912Z,17.98
2019-03-03T01:23:27.942Z,17.10
2019-03-03T01:28:20.835Z,18.48
2019-03-03T01:30:47.003Z,17.98
2019-03-03T01:33:13.894Z,15.35
2019-03-03T01:35:40.022Z,17.17
2019-03-03T01:38:06.817Z,18.42
2019-03-03T01:40:33.952Z,17.57
2019-03-03T01:43:01.263Z,13.98
2019-03-03T01:45:27.405Z,14.63
2019-03-03T01:47:53.932Z,14.68
2019-03-03T01:50:20.094Z,15.75
2019-03-03T01:52:46.213Z,17.48
2019-03-03T01:55:12.827Z,14.40
2019-03-03T01:57:39.138Z,13.45
2019-03-03T02:00:20.302Z,15.95
2019-03-03T02:05:12.607Z,16.62
2019-03-03T02:07:38.785Z,13.53
2019-03-03T02:10:07.966Z,11.80
2019-03-03T02:12:34.190Z,12.03
2019-03-03T02:15:01.006Z,12.20
2019-03-03T02:17:27.662Z,12.00
2019-03-03T02:19:54.025Z,11.65
2019-03-03T02:22:20.193Z,12.13
2019-03-03T02:24:46.371Z,11.05
2019-03-03T02:27:12.750Z,12.13
2019-03-03T02:29:38.869Z,12.63
2019-03-03T02:32:07.026Z,13.35
2019-03-03T02:34:33.241Z,12.73
2019-03-03T02:36:59.376Z,12.93
2019-03-03T02:39:25.502Z,10.68
2019-03-03T02:41:51.630Z,11.12
2019-03-03T02:44:17.966Z,11.28
2019-03-03T02:46:44.137Z,9.80
2019-03-03T02:49:10.307Z,10.88
2019-03-03T02:51:36.704Z,10.60
2019-03-03T02:54:04.766Z,9.95
2019-03-03T02:56:33.629Z,8.70
2019-03-03T02:58:59.928Z,11.38
2019-03-03T03:01:29.118Z,9.40
2019-03-03T03:03:55.184Z,9.15
2019-03-03T03:06:23.387Z,10.68
2019-03-03T03:09:10.451Z,8.98
2019-03-03T03:11:43.544Z,8.43
2019-03-03T03:14:20.885Z,9.93
2019-03-03T03:16:49.406Z,8.88
2019-03-03T03:19:29.700Z,9.75
2019-03-03T03:21:57.797Z,7.25
2019-03-03T03:24:30.413Z,9.40
2019-03-03T03:26:58.641Z,8.33
2019-03-03T03:29:32.554Z,9.73
2019-03-03T03:32:09.512Z,11.50
2019-03-03T03:34:55.744Z,8.58
2019-03-03T03:37:26.783Z,9.38
2019-03-03T03:42:38.259Z,8.43
2019-03-03T03:45:10.445Z,10.53
2019-03-03T03:47:41.199Z,9.03
2019-03-03T03:50:15.231Z,9.50
2019-03-03T03:52:49.464Z,9.00
2019-03-03T03:55:30.078Z,9.95
2019-03-03T03:58:16.895Z,9.18
2019-03-03T04:01:01.591Z,8.40
2019-03-03T04:03:47.036Z,8.20
2019-03-03T04:06:18.834Z,8.58
2019-03-03T04:08:52.795Z,10.00
2019-03-03T04:11:23.671Z,11.15
2019-03-03T04:14:03.827Z,8.30
2019-03-03T04:16:38.280Z,10.08
2019-03-03T04:19:23.115Z,10.72
2019-03-03T04:21:51.242Z,11.18
2019-03-03T04:24:28.066Z,13.88
2019-03-03T04:26:56.947Z,7.83
2019-03-03T04:32:16.439Z,11.03
2019-03-03T04:35:03.706Z,10.95
2019-03-03T04:37:49.685Z,7.90
2019-03-03T04:40:34.244Z,10.30
2019-03-03T04:43:02.822Z,9.58
2019-03-03T04:45:36.926Z,10.95
2019-03-03T04:48:08.050Z,7.78
2019-03-03T04:50:44.727Z,8.18
2019-03-03T04:53:28.269Z,8.20
2019-03-03T04:56:02.297Z,11.10
2019-03-03T04:58:42.578Z,10.15
2019-03-03T05:01:13.722Z,10.05
2019-03-03T05:06:15.483Z,8.33
2019-03-03T05:08:52.707Z,12.05
2019-03-03T05:11:39.805Z,9.20
2019-03-03T05:14:08.372Z,8.88
2019-03-03T05:16:40.267Z,10.65
2019-03-03T05:19:07.892Z,11.35
2019-03-03T05:21:34.095Z,11.68
2019-03-03T05:24:00.187Z,9.90
2019-03-03T05:26:26.382Z,10.65
2019-03-03T05:28:52.514Z,12.93
2019-03-03T05:31:18.801Z,13.98
2019-03-03T05:33:44.948Z,16.55
2019-03-03T05:36:11.185Z,14.85
2019-03-03T05:38:37.365Z,12.37
2019-03-03T05:41:03.472Z,14.43
2019-03-03T05:43:30.972Z,15.08
2019-03-03T05:45:57.602Z,12.95
2019-03-03T05:48:23.784Z,12.53
2019-03-03T05:50:49.926Z,10.93
2019-03-03T05:53:16.133Z,11.60
2019-03-03T05:55:42.726Z,11.25
2019-03-03T05:58:08.958Z,11.57
2019-03-03T06:00:35.167Z,11.30
2019-03-03T06:03:02.101Z,11.48
2019-03-03T06:05:28.373Z,12.07
2019-03-03T06:07:55.811Z,10.88
2019-03-03T06:10:21.885Z,12.75
2019-03-03T06:12:48.063Z,12.70
2019-03-03T06:15:14.230Z,11.80
2019-03-03T06:17:41.280Z,13.20
2019-03-03T06:20:09.617Z,9.13
2019-03-03T06:22:36.001Z,8.78
2019-03-03T06:25:04.046Z,10.05
2019-03-03T06:27:30.213Z,10.03
2019-03-03T06:29:56.336Z,13.10
2019-03-03T06:32:24.649Z,10.43
2019-03-03T06:34:50.768Z,11.75
2019-03-03T06:37:17.746Z,9.40
2019-03-03T06:39:45.006Z,8.33
2019-03-03T06:42:11.382Z,10.13
2019-03-03T06:44:37.979Z,7.62
2019-03-03T06:47:04.134Z,7.37
2019-03-03T06:49:30.262Z,9.13
2019-03-03T06:51:57.766Z,15.53
2019-03-03T06:54:23.991Z,8.90
2019-03-03T06:56:50.144Z,10.13
2019-03-03T06:59:16.982Z,8.88
2019-03-03T07:01:43.116Z,12.63
2019-03-03T07:04:09.235Z,10.88
2019-03-03T07:06:35.365Z,12.10
2019-03-03T07:09:03.989Z,8.63
2019-03-03T07:11:33.562Z,9.73
2019-03-03T07:14:00.703Z,8.43
2019-03-03T07:16:26.789Z,9.63
2019-03-03T07:18:53.925Z,12.58
2019-03-03T07:21:20.191Z,7.35
2019-03-03T07:23:46.885Z,8.83
2019-03-03T07:26:13.008Z,8.03
2019-03-03T07:28:40.181Z,8.85
2019-03-03T07:31:06.273Z,12.70
2019-03-03T07:33:32.452Z,12.20
2019-03-03T07:35:58.579Z,7.72
2019-03-03T07:38:24.960Z,8.93
2019-03-03T07:40:51.190Z,7.78
2019-03-03T07:43:17.366Z,8.28
2019-03-03T07:45:43.514Z,9.58
2019-03-03T07:48:10.852Z,8.00
2019-03-03T07:50:37.248Z,7.72
2019-03-03T07:53:03.647Z,10.53
2019-03-03T07:55:29.725Z,11.50
2019-03-03T07:57:57.136Z,9.60
2019-03-03T08:00:23.703Z,12.13
2019-03-03T08:03:14.365Z,11.15
2019-03-03T08:05:42.035Z,7.45
2019-03-03T08:08:09.645Z,11.85
2019-03-03T08:10:36.249Z,9.73
2019-03-03T08:13:09.138Z,12.25
2019-03-03T08:15:31.338Z,14.15
2019-03-03T08:17:57.529Z,9.00
2019-03-03T08:20:23.660Z,15.23
2019-03-03T08:22:49.786Z,15.95
2019-03-03T08:25:16.181Z,10.60
2019-03-03T08:27:43.325Z,11.20
2019-03-03T08:30:11.271Z,9.25
2019-03-03T08:32:37.903Z,9.53
2019-03-03T08:35:18.927Z,10.00
2019-03-03T08:37:46.565Z,12.80
2019-03-03T08:40:12.940Z,11.12
2019-03-03T08:42:58.246Z,9.98
2019-03-03T08:45:26.426Z,11.18
2019-03-03T08:47:57.292Z,8.73
2019-03-03T08:50:28.602Z,9.68
2019-03-03T08:52:56.696Z,10.48
2019-03-03T08:55:24.680Z,10.80
2019-03-03T08:57:55.848Z,9.13
2019-03-03T09:00:24.118Z,9.03
2019-03-03T09:03:10.912Z,7.53
2019-03-03T09:05:57.450Z,12.00
2019-03-03T09:08:34.572Z,6.55
2019-03-03T09:11:02.919Z,7.10
2019-03-03T09:13:33.701Z,8.43
2019-03-03T09:16:04.787Z,7.33
2019-03-03T09:21:17.561Z,10.68
2019-03-03T09:24:02.549Z,7.40
2019-03-03T09:26:45.622Z,6.12
2019-03-03T09:29:13.913Z,10.10
2019-03-03T09:31:42.512Z,12.13
2019-03-03T09:34:19.696Z,8.05
2019-03-03T09:36:47.884Z,40.85
2019-03-03T09:39:19.999Z,9.18
2019-03-03T09:44:16.454Z,9.15
2019-03-03T09:47:01.708Z,6.30
2019-03-03T09:49:39.281Z,8.28
2019-03-03T09:52:24.568Z,9.45
2019-03-03T09:55:04.883Z,7.33
2019-03-03T09:57:48.265Z,11.38
2019-03-03T10:00:22.481Z,9.73
2019-03-03T10:02:54.745Z,10.95
2019-03-03T10:05:26.127Z,9.38
2019-03-03T10:08:10.760Z,9.90
2019-03-03T10:10:41.967Z,7.75
2019-03-03T10:13:12.783Z,9.33
2019-03-03T10:15:44.162Z,6.17
2019-03-03T10:18:12.462Z,9.20
2019-03-03T10:20:40.856Z,6.45
2019-03-03T10:23:09.068Z,8.48
2019-03-03T10:25:37.803Z,9.08
2019-03-03T10:28:05.964Z,7.10
2019-03-03T10:30:34.354Z,7.58
2019-03-03T10:33:07.159Z,9.75
2019-03-03T10:35:51.804Z,6.87
2019-03-03T10:38:22.574Z,12.80
2019-03-03T10:40:51.034Z,10.30
2019-03-03T10:43:28.742Z,10.43
2019-03-03T10:46:09.613Z,9.28
2019-03-03T10:48:38.213Z,6.80
2019-03-03T10:51:09.806Z,12.53
2019-03-03T10:56:18.413Z,10.38
2019-03-03T10:58:47.049Z,9.10
2019-03-03T11:01:15.330Z,11.15
2019-03-03T11:03:43.819Z,11.15
2019-03-03T11:06:27.212Z,7.83
2019-03-03T11:08:55.463Z,10.28
2019-03-03T11:11:38.934Z,7.03
2019-03-03T11:14:25.308Z,11.20
2019-03-03T11:17:10.455Z,10.53
2019-03-03T11:19:55.219Z,9.53
2019-03-03T11:22:41.314Z,11.93
2019-03-03T11:25:10.039Z,8.60
2019-03-03T11:27:44.215Z,10.63
2019-03-03T11:30:18.667Z,8.15
2019-03-03T11:32:49.469Z,7.92
2019-03-03T11:35:26.696Z,8.73
2019-03-03T11:37:57.407Z,10.38
2019-03-03T11:40:34.620Z,9.50
2019-03-03T11:43:08.593Z,8.13
2019-03-03T11:45:39.511Z,11.55
2019-03-03T11:48:10.063Z,9.35
2019-03-03T11:50:41.041Z,6.62
2019-03-03T11:53:12.813Z,10.58
2019-03-03T11:55:40.948Z,12.88
2019-03-03T11:58:13.915Z,9.05
2019-03-03T12:00:59.190Z,8.13
2019-03-03T12:03:36.615Z,13.98
2019-03-03T12:06:14.172Z,8.13
2019-03-03T12:09:11.128Z,9.35
2019-03-03T12:11:46.549Z,11.63
2019-03-03T12:17:53.155Z,7.10
2019-03-03T12:23:37.181Z,11.40
2019-03-03T12:26:15.032Z,7.28
2019-03-03T12:28:49.273Z,14.15
2019-03-03T12:31:35.268Z,10.63
2019-03-03T12:34:06.719Z,9.68
2019-03-03T12:36:54.187Z,9.60
2019-03-03T12:39:22.399Z,9.25
2019-03-03T12:42:10.630Z,9.93
2019-03-03T12:44:44.805Z,12.15
2019-03-03T12:47:16.216Z,8.03
2019-03-03T12:49:44.416Z,7.95
2019-03-03T12:52:20.671Z,11.20
2019-03-03T12:55:06.566Z,8.83
2019-03-03T12:57:36.671Z,9.70
2019-03-03T13:00:11.559Z,7.75
2019-03-03T13:03:01.271Z,11.63
2019-03-03T13:05:55.904Z,14.68
2019-03-03T13:08:59.654Z,9.10
2019-03-03T13:14:53.729Z,6.40
2019-03-03T13:17:48.264Z,9.13
2019-03-03T13:20:28.205Z,9.25
2019-03-03T13:23:00.568Z,11.28
2019-03-03T13:25:32.810Z,14.58
2019-03-03T13:28:10.435Z,13.32
2019-03-03T13:30:41.809Z,9.85
2019-03-03T13:33:13.032Z,10.68
2019-03-03T13:35:46.880Z,9.78
2019-03-03T13:38:17.900Z,13.35
2019-03-03T13:43:21.358Z,11.50
2019-03-03T13:45:47.677Z,12.68
2019-03-03T13:48:14.011Z,11.12
2019-03-03T13:50:40.321Z,14.87
2019-03-03T13:53:06.862Z,9.55
2019-03-03T13:55:33.174Z,11.83
2019-03-03T13:57:59.630Z,17.85
2019-03-03T14:00:25.978Z,9.55
2019-03-03T14:02:52.594Z,11.35
2019-03-03T14:05:20.687Z,7.33
2019-03-03T14:07:48.346Z,11.05
2019-03-03T14:10:16.976Z,10.48
2019-03-03T14:12:43.397Z,7.45
2019-03-03T14:15:14.897Z,9.18
2019-03-03T14:17:43.543Z,12.58
2019-03-03T14:20:22.452Z,7.50
2019-03-03T14:22:49.212Z,13.90
2019-03-03T14:25:18.217Z,7.62
2019-03-03T14:27:45.960Z,10.35
2019-03-03T14:30:17.400Z,5.92
2019-03-03T14:32:45.858Z,8.35
2019-03-03T14:35:13.788Z,9.33
2019-03-03T14:37:42.719Z,8.38
2019-03-03T14:40:13.638Z,9.08
2019-03-03T14:42:40.052Z,12.50
2019-03-03T14:45:09.247Z,10.58
2019-03-03T14:47:35.718Z,11.43
2019-03-03T14:50:05.361Z,7.87
2019-03-03T14:52:31.620Z,12.82
2019-03-03T14:54:58.909Z,10.58
2019-03-03T14:57:25.320Z,10.68
2019-03-03T14:59:53.203Z,15.78
2019-03-03T15:02:19.960Z,10.98
2019-03-03T15:04:46.028Z,9.75
2019-03-03T15:07:12.213Z,12.73
2019-03-03T15:09:39.136Z,13.50
2019-03-03T15:12:05.349Z,7.97
2019-03-03T15:14:33.309Z,9.65
2019-03-03T15:17:01.875Z,9.68
2019-03-03T15:19:29.485Z,8.45
2019-03-03T15:21:55.764Z,10.05
2019-03-03T15:24:21.895Z,10.85
2019-03-03T15:26:48.118Z,10.28
2019-03-03T15:29:17.662Z,9.68
2019-03-03T15:31:45.221Z,11.12
2019-03-03T15:34:11.347Z,9.40
2019-03-03T15:36:37.675Z,10.72
2019-03-03T15:39:05.260Z,11.78
2019-03-03T15:41:33.476Z,6.08
2019-03-03T15:43:59.639Z,9.30
2019-03-03T15:46:26.283Z,10.63
2019-03-03T15:48:52.585Z,8.33
2019-03-03T15:51:20.415Z,9.73
2019-03-03T15:53:51.125Z,7.67
2019-03-03T15:56:17.105Z,7.03
2019-03-03T15:58:55.253Z,7.37
2019-03-03T16:01:13.873Z,6.07
2019-03-03T16:03:40.275Z,9.48
2019-03-03T16:06:06.557Z,8.43
2019-03-03T16:08:32.902Z,6.95
2019-03-03T16:10:58.981Z,8.65
2019-03-03T16:13:28.817Z,9.08
2019-03-03T16:15:55.665Z,5.20
2019-03-03T16:18:21.862Z,5.62
2019-03-03T16:20:47.933Z,9.65
2019-03-03T16:23:14.234Z,11.93
2019-03-03T16:25:40.460Z,8.38
2019-03-03T16:28:07.345Z,8.93
2019-03-03T16:30:33.670Z,7.28
2019-03-03T16:33:00.717Z,11.73
2019-03-03T16:35:30.537Z,10.75
2019-03-03T16:37:56.690Z,11.63
2019-03-03T16:40:26.144Z,12.75
2019-03-03T16:42:52.260Z,45.78
2019-03-03T16:45:18.676Z,9.60
2019-03-03T16:47:44.971Z,9.80
2019-03-03T16:50:16.900Z,8.13
2019-03-03T16:52:44.995Z,9.58
2019-03-03T16:55:13.038Z,9.00
2019-03-03T16:57:41.282Z,5.83
2019-03-03T17:00:16.153Z,7.60
2019-03-03T17:02:42.446Z,9.03
2019-03-03T17:05:12.723Z,6.33
2019-03-03T17:07:39.416Z,5.95
2019-03-03T17:10:08.418Z,12.10
2019-03-03T17:12:34.478Z,10.00
2019-03-03T17:15:00.681Z,9.65
2019-03-03T17:17:27.214Z,7.58
2019-03-03T17:19:53.375Z,9.20
2019-03-03T17:22:19.462Z,9.58
2019-03-03T17:24:48.226Z,8.38
2019-03-03T17:27:14.304Z,8.00
2019-03-03T17:29:40.632Z,9.50
2019-03-03T17:32:06.760Z,9.63
2019-03-03T17:34:33.308Z,10.32
2019-03-03T17:37:01.187Z,8.23
2019-03-03T17:39:28.184Z,5.75
2019-03-03T17:41:56.007Z,7.28
2019-03-03T17:44:24.123Z,7.78
2019-03-03T17:46:50.671Z,7.17
2019-03-03T17:49:18.010Z,10.58
2019-03-03T17:51:44.063Z,8.60
2019-03-03T17:54:10.237Z,8.25
2019-03-03T17:56:39.374Z,9.60
2019-03-03T17:59:05.570Z,5.87
2019-03-03T18:01:34.267Z,9.08
2019-03-03T18:04:00.575Z,7.75
2019-03-03T18:06:38.408Z,9.45
2019-03-03T18:08:57.394Z,4.85
2019-03-03T18:11:26.287Z,6.65
2019-03-03T18:13:52.338Z,7.35
2019-03-03T18:16:18.517Z,6.55
2019-03-03T18:18:44.585Z,5.58
2019-03-03T18:21:10.766Z,7.55
2019-03-03T18:23:36.890Z,5.72
2019-03-03T18:26:05.042Z,6.55
2019-03-03T18:28:32.042Z,7.87
2019-03-03T18:31:00.954Z,6.37
2019-03-03T18:33:27.569Z,6.33
2019-03-03T18:35:53.776Z,4.90
2019-03-03T18:38:19.925Z,7.55
2019-03-03T18:40:46.046Z,4.10
2019-03-03T18:43:12.183Z,4.92
2019-03-03T18:45:39.193Z,4.15
2019-03-03T18:48:05.496Z,5.08
2019-03-03T18:50:32.241Z,6.12
2019-03-03T18:52:59.906Z,4.53
2019-03-03T18:55:26.475Z,5.95
2019-03-03T18:57:54.136Z,5.85
2019-03-03T19:00:25.222Z,9.58
2019-03-03T19:05:20.029Z,5.28
2019-03-03T19:07:47.134Z,5.05
2019-03-03T19:10:18.030Z,6.10
2019-03-03T19:12:44.337Z,6.85
2019-03-03T19:15:13.269Z,4.67
2019-03-03T19:17:39.498Z,4.83
2019-03-03T19:20:09.275Z,5.97
2019-03-03T19:22:35.480Z,6.30
2019-03-03T19:25:02.875Z,4.65
2019-03-03T19:27:29.038Z,8.08
2019-03-03T19:29:55.953Z,5.55
2019-03-03T19:32:22.692Z,5.90
2019-03-03T19:34:50.462Z,13.88
2019-03-03T19:37:16.558Z,36.25
2019-03-03T19:39:42.788Z,6.28
2019-03-03T19:42:08.958Z,4.95
2019-03-03T19:44:35.249Z,8.08
2019-03-03T19:47:01.318Z,4.12
2019-03-03T19:49:27.517Z,6.05
2019-03-03T19:51:53.836Z,5.62
2019-03-03T19:54:22.162Z,5.78
2019-03-03T19:56:49.427Z,7.85
2019-03-03T19:59:15.768Z,4.70
2019-03-03T20:01:41.951Z,6.15
2019-03-03T20:04:08.187Z,7.28
2019-03-03T20:06:34.530Z,7.33
2019-03-03T20:09:00.757Z,5.85
2019-03-03T20:11:29.042Z,6.40
2019-03-03T20:13:55.655Z,6.50
2019-03-03T20:16:23.022Z,5.65
2019-03-03T20:18:49.419Z,5.50
2019-03-03T20:21:16.090Z,6.87
2019-03-03T20:23:43.312Z,6.37
2019-03-03T20:26:09.545Z,10.40
2019-03-03T20:28:35.936Z,7.58
2019-03-03T20:31:02.514Z,5.10
2019-03-03T20:33:30.514Z,7.65
2019-03-03T20:35:56.622Z,5.80
2019-03-03T20:38:24.651Z,6.87
2019-03-03T20:40:50.834Z,6.40
2019-03-03T20:43:16.960Z,7.25
2019-03-03T20:45:43.253Z,6.65
2019-03-03T20:48:09.328Z,7.25
2019-03-03T20:50:35.514Z,9.23
2019-03-03T20:53:01.668Z,9.18
2019-03-03T20:55:30.494Z,7.67
2019-03-03T20:57:58.107Z,5.83
2019-03-03T21:00:25.769Z,7.92
2019-03-03T21:02:53.400Z,8.78
2019-03-03T21:05:19.904Z,6.03
2019-03-03T21:07:51.463Z,10.78
2019-03-03T21:10:20.990Z,6.37
2019-03-03T21:12:47.147Z,8.48
2019-03-03T21:15:13.644Z,8.15
2019-03-03T21:17:39.805Z,9.55
2019-03-03T21:20:09.310Z,4.75
2019-03-03T21:22:37.803Z,8.70
2019-03-03T21:25:09.597Z,5.35
2019-03-03T21:27:35.993Z,5.70
2019-03-03T21:30:08.059Z,7.60
2019-03-03T21:32:35.551Z,8.70
2019-03-03T21:35:01.697Z,6.67
2019-03-03T21:37:28.259Z,6.85
2019-03-03T21:39:54.398Z,8.93
2019-03-03T21:42:20.610Z,6.65
2019-03-03T21:44:46.800Z,9.23
2019-03-03T21:47:12.937Z,7.20
2019-03-03T21:49:41.116Z,8.13
2019-03-03T21:52:08.232Z,7.90
2019-03-03T21:54:34.386Z,6.17
2019-03-03T21:57:01.923Z,7.53
2019-03-03T21:59:28.740Z,6.47
2019-03-03T22:01:56.575Z,6.33
2019-03-03T22:04:22.805Z,7.28
2019-03-03T22:06:48.993Z,4.90
2019-03-03T22:09:15.157Z,6.17
2019-03-03T22:11:43.216Z,8.70
2019-03-03T22:14:09.310Z,7.37
2019-03-03T22:16:37.581Z,5.62
2019-03-03T22:19:03.647Z,5.65
2019-03-03T22:21:29.810Z,7.40
2019-03-03T22:23:55.920Z,8.35
2019-03-03T22:26:22.047Z,9.43
2019-03-03T22:28:48.236Z,9.23
2019-03-03T22:31:15.553Z,5.62
2019-03-03T22:33:42.311Z,8.70
2019-03-03T22:36:10.573Z,5.78
2019-03-03T22:38:36.935Z,7.17
2019-03-03T22:41:04.397Z,7.72
2019-03-03T22:43:31.214Z,7.40
2019-03-03T22:45:57.400Z,5.85
2019-03-03T22:48:23.805Z,6.40
2019-03-03T22:50:49.936Z,7.15
2019-03-03T22:53:16.064Z,9.90
2019-03-03T22:55:42.183Z,7.58
2019-03-03T22:58:08.778Z,9.70
2019-03-03T23:00:43.772Z,8.40
2019-03-03T23:03:18.639Z,6.37
2019-03-03T23:05:58.288Z,6.90
2019-03-03T23:08:47.033Z,8.65
2019-03-03T23:11:24.129Z,7.00
2019-03-03T23:14:09.464Z,4.75
2019-03-03T23:16:58.979Z,7.53
2019-03-03T23:19:53.161Z,7.12
2019-03-03T23:22:26.450Z,8.75
2019-03-03T23:25:11.496Z,10.03
2019-03-03T23:27:37.547Z,7.00
2019-03-03T23:30:06.150Z,7.05
2019-03-03T23:32:32.674Z,8.25
2019-03-03T23:35:01.437Z,5.37
2019-03-03T23:37:28.517Z,6.60
2019-03-03T23:39:54.703Z,7.45
2019-03-03T23:42:20.821Z,7.15
2019-03-03T23:44:46.959Z,7.65
2019-03-03T23:47:13.063Z,9.98
2019-03-03T23:49:39.260Z,9.63
2019-03-03T23:52:05.491Z,8.95
2019-03-03T23:54:32.789Z,7.25
2019-03-03T23:56:58.973Z,11.68
2019-03-03T23:59:25.296Z,6.65
